createdAt,value
2022-08-31T00:02:07.417Z,5.07
2022-08-31T00:04:34.743Z,6.43
2022-08-31T00:07:01.853Z,6.50
2022-08-31T00:09:31.114Z,5.80
2022-08-31T00:11:58.245Z,5.30
2022-08-31T00:14:25.365Z,8.77
2022-08-31T00:16:53.940Z,6.80
2022-08-31T00:19:21.098Z,5.22
2022-08-31T00:21:48.277Z,5.63
2022-08-31T00:24:15.493Z,6.00
2022-08-31T00:26:43.188Z,6.13
2022-08-31T00:29:10.516Z,5.15
2022-08-31T00:31:37.352Z,5.93
2022-08-31T00:34:04.802Z,5.20
2022-08-31T00:36:32.185Z,6.82
2022-08-31T00:38:59.712Z,5.07
2022-08-31T00:41:27.875Z,5.20
2022-08-31T00:43:57.028Z,5.70
2022-08-31T00:46:26.796Z,7.13
2022-08-31T00:49:13.800Z,8.05
2022-08-31T00:51:42.747Z,7.40
2022-08-31T00:54:10.676Z,6.47
2022-08-31T00:56:38.199Z,6.45
2022-08-31T00:59:05.683Z,5.60
2022-08-31T01:01:32.805Z,6.15
2022-08-31T01:04:00.291Z,6.78
2022-08-31T01:06:28.107Z,6.05
2022-08-31T01:08:56.351Z,6.30
2022-08-31T01:11:23.523Z,7.23
2022-08-31T01:13:50.795Z,6.18
2022-08-31T01:16:21.667Z,6.13
2022-08-31T01:18:49.021Z,7.00
2022-08-31T01:21:17.110Z,5.75
2022-08-31T01:23:45.001Z,6.53
2022-08-31T01:26:20.613Z,5.88
2022-08-31T01:28:48.334Z,6.05
2022-08-31T01:31:20.752Z,8.57
2022-08-31T01:33:47.968Z,7.60
2022-08-31T01:36:16.193Z,6.63
2022-08-31T01:38:43.978Z,5.90
2022-08-31T01:41:13.097Z,6.20
2022-08-31T01:43:41.455Z,7.18
2022-08-31T01:46:09.949Z,6.00
2022-08-31T01:48:41.088Z,6.50
2022-08-31T01:51:08.909Z,7.28
2022-08-31T01:53:39.433Z,6.30
2022-08-31T01:56:12.914Z,6.43
2022-08-31T01:58:40.029Z,7.55
2022-08-31T02:01:10.709Z,5.97
2022-08-31T02:03:54.473Z,5.72
2022-08-31T02:06:24.476Z,5.95
2022-08-31T02:08:51.718Z,5.90
2022-08-31T02:11:18.985Z,7.53
2022-08-31T02:13:46.546Z,7.25
2022-08-31T02:16:13.637Z,5.72
2022-08-31T02:18:40.769Z,6.82
2022-08-31T02:21:07.881Z,6.30
2022-08-31T02:23:34.997Z,6.68
2022-08-31T02:26:02.121Z,6.38
2022-08-31T02:28:29.301Z,6.50
2022-08-31T02:30:56.054Z,6.00
2022-08-31T02:33:24.873Z,7.93
2022-08-31T02:35:53.675Z,6.00
2022-08-31T02:38:22.906Z,7.03
2022-08-31T02:40:51.497Z,7.65
2022-08-31T02:43:24.989Z,6.50
2022-08-31T02:45:53.518Z,6.25
2022-08-31T02:48:21.702Z,6.40
2022-08-31T02:50:50.066Z,6.43
2022-08-31T02:53:18.090Z,6.40
2022-08-31T02:55:45.547Z,6.28
2022-08-31T02:58:13.132Z,6.32
2022-08-31T03:00:40.536Z,7.72
2022-08-31T03:03:07.673Z,6.63
2022-08-31T03:05:34.764Z,6.50
2022-08-31T03:08:01.976Z,6.63
2022-08-31T03:10:29.185Z,7.25
2022-08-31T03:12:56.364Z,8.15
2022-08-31T03:15:24.397Z,6.70
2022-08-31T03:17:51.808Z,6.95
2022-08-31T03:20:19.741Z,6.70
2022-08-31T03:22:46.862Z,7.43
2022-08-31T03:25:14.148Z,6.57
2022-08-31T03:27:41.316Z,6.20
2022-08-31T03:30:10.161Z,6.97
2022-08-31T03:32:37.472Z,6.45
2022-08-31T03:35:04.957Z,6.55
2022-08-31T03:37:32.449Z,5.95
2022-08-31T03:39:59.690Z,7.80
2022-08-31T03:42:27.531Z,6.47
2022-08-31T03:44:55.047Z,6.43
2022-08-31T03:47:22.137Z,6.53
2022-08-31T03:49:50.579Z,7.90
2022-08-31T03:52:17.785Z,6.78
2022-08-31T03:54:44.908Z,6.60
2022-08-31T03:57:12.173Z,6.75
2022-08-31T03:59:39.612Z,8.68
2022-08-31T04:02:07.050Z,6.70
2022-08-31T04:04:34.968Z,7.25
2022-08-31T04:07:01.736Z,6.85
2022-08-31T04:09:29.059Z,7.07
2022-08-31T04:11:56.323Z,7.30
2022-08-31T04:14:23.552Z,7.05
2022-08-31T04:16:50.726Z,6.75
2022-08-31T04:19:18.249Z,6.55
2022-08-31T04:21:45.891Z,6.95
2022-08-31T04:24:13.004Z,7.28
2022-08-31T04:26:40.983Z,7.35
2022-08-31T04:29:13.081Z,8.70
2022-08-31T04:31:40.855Z,6.60
2022-08-31T04:34:08.103Z,7.22
2022-08-31T04:36:35.229Z,7.05
2022-08-31T04:39:03.604Z,8.00
2022-08-31T04:41:32.600Z,6.70
2022-08-31T04:44:00.864Z,6.75
2022-08-31T04:46:28.560Z,6.95
2022-08-31T04:48:55.867Z,8.18
2022-08-31T04:51:26.471Z,6.80
2022-08-31T04:53:53.940Z,6.97
2022-08-31T04:56:22.782Z,8.27
2022-08-31T04:58:51.551Z,8.25
2022-08-31T05:01:20.161Z,7.13
2022-08-31T05:03:53.146Z,7.15
2022-08-31T05:06:21.595Z,9.50
2022-08-31T05:08:48.918Z,8.13
2022-08-31T05:11:19.033Z,7.67
2022-08-31T05:13:50.006Z,8.10
2022-08-31T05:16:17.694Z,7.35
2022-08-31T05:18:45.667Z,7.88
2022-08-31T05:21:13.947Z,6.80
2022-08-31T05:23:41.142Z,7.53
2022-08-31T05:26:08.583Z,6.90
2022-08-31T05:28:36.215Z,7.15
2022-08-31T05:31:03.536Z,7.03
2022-08-31T05:33:31.059Z,7.07
2022-08-31T05:36:01.298Z,6.43
2022-08-31T05:38:28.478Z,7.10
2022-08-31T05:40:56.206Z,7.32
2022-08-31T05:43:23.702Z,6.53
2022-08-31T05:45:51.003Z,6.22
2022-08-31T05:48:18.270Z,7.70
2022-08-31T05:50:45.434Z,7.60
2022-08-31T05:53:12.934Z,6.07
2022-08-31T05:55:40.318Z,5.80
2022-08-31T05:58:07.514Z,5.43
2022-08-31T06:00:35.354Z,5.50
2022-08-31T06:03:02.490Z,5.90
2022-08-31T06:05:29.557Z,5.65
2022-08-31T06:07:56.751Z,6.32
2022-08-31T06:10:24.139Z,6.75
2022-08-31T06:12:52.066Z,5.68
2022-08-31T06:15:19.213Z,5.10
2022-08-31T06:17:46.354Z,6.20
2022-08-31T06:20:17.787Z,5.53
2022-08-31T06:22:46.552Z,5.80
2022-08-31T06:25:19.267Z,6.63
2022-08-31T06:27:50.345Z,5.32
2022-08-31T06:30:20.614Z,5.50
2022-08-31T06:32:48.142Z,4.90
2022-08-31T06:35:15.353Z,6.80
2022-08-31T06:37:42.534Z,6.53
2022-08-31T06:40:09.935Z,6.18
2022-08-31T06:42:37.195Z,6.70
2022-08-31T06:45:05.606Z,5.72
2022-08-31T06:47:32.693Z,5.78
2022-08-31T06:50:00.005Z,5.75
2022-08-31T06:52:27.296Z,5.78
2022-08-31T06:54:54.163Z,5.60
2022-08-31T06:57:21.301Z,6.68
2022-08-31T06:59:48.425Z,5.72
2022-08-31T07:02:15.645Z,7.47
2022-08-31T07:04:42.884Z,7.10
2022-08-31T07:07:11.448Z,7.07
2022-08-31T07:09:39.729Z,7.68
2022-08-31T07:12:06.948Z,7.18
2022-08-31T07:14:35.613Z,7.00
2022-08-31T07:17:03.808Z,9.10
2022-08-31T07:19:31.146Z,6.47
2022-08-31T07:21:59.565Z,6.30
2022-08-31T07:24:30.150Z,6.07
2022-08-31T07:26:59.036Z,6.20
2022-08-31T07:29:30.145Z,6.18
2022-08-31T07:31:59.181Z,6.63
2022-08-31T07:34:28.016Z,6.32
2022-08-31T07:37:16.012Z,6.80
2022-08-31T07:40:07.047Z,14.48
2022-08-31T07:42:38.641Z,8.35
2022-08-31T07:45:10.118Z,8.88
2022-08-31T07:47:45.064Z,6.72
2022-08-31T07:50:13.323Z,7.43
2022-08-31T07:52:47.222Z,9.00
2022-08-31T07:55:14.768Z,11.50
2022-08-31T07:57:44.193Z,20.30
2022-08-31T08:00:18.114Z,7.85
2022-08-31T08:02:52.651Z,7.53
2022-08-31T08:05:24.456Z,7.30
2022-08-31T08:07:55.713Z,7.17
2022-08-31T08:10:24.276Z,4.68
2022-08-31T08:12:57.099Z,4.78
2022-08-31T08:15:25.431Z,5.00
2022-08-31T08:17:52.647Z,6.88
2022-08-31T08:20:23.770Z,5.13
2022-08-31T08:23:02.507Z,6.00
2022-08-31T08:25:29.431Z,5.50
2022-08-31T08:27:58.035Z,6.18
2022-08-31T08:30:25.606Z,5.63
2022-08-31T08:32:52.791Z,9.40
2022-08-31T08:35:20.191Z,4.30
2022-08-31T08:37:58.605Z,4.20
2022-08-31T08:40:37.253Z,4.00
2022-08-31T08:43:06.137Z,5.00
2022-08-31T08:45:35.400Z,3.92
2022-08-31T08:48:06.864Z,3.97
2022-08-31T08:50:34.074Z,4.50
2022-08-31T08:53:05.399Z,3.85
2022-08-31T08:55:37.528Z,7.23
2022-08-31T08:58:07.916Z,4.68
2022-08-31T09:00:35.085Z,3.50
2022-08-31T09:03:08.280Z,3.20
2022-08-31T09:05:56.953Z,3.83
2022-08-31T09:08:25.164Z,4.47
2022-08-31T09:11:17.515Z,5.20
2022-08-31T09:13:53.197Z,4.60
2022-08-31T09:16:25.982Z,4.57
2022-08-31T09:18:57.590Z,3.97
2022-08-31T09:21:28.850Z,5.55
2022-08-31T09:24:01.547Z,3.70
2022-08-31T09:26:32.755Z,3.70
2022-08-31T09:29:03.764Z,4.10
2022-08-31T09:31:40.185Z,3.95
2022-08-31T09:34:09.332Z,3.45
2022-08-31T09:36:38.767Z,3.65
2022-08-31T09:39:24.872Z,5.68
2022-08-31T09:41:58.000Z,5.03
2022-08-31T09:44:30.495Z,3.42
2022-08-31T09:47:02.430Z,4.20
2022-08-31T09:49:31.619Z,4.93
2022-08-31T09:52:18.918Z,3.28
2022-08-31T09:55:17.454Z,4.50
2022-08-31T09:57:53.006Z,4.80
2022-08-31T10:00:26.429Z,3.55
2022-08-31T10:02:57.777Z,3.28
2022-08-31T10:05:31.632Z,3.07
2022-08-31T10:08:20.431Z,3.90
2022-08-31T10:10:49.450Z,4.18
2022-08-31T10:13:19.808Z,3.20
2022-08-31T10:16:06.977Z,4.47
2022-08-31T10:18:34.138Z,11.40
2022-08-31T10:21:08.360Z,15.32
2022-08-31T10:23:54.626Z,4.65
2022-08-31T10:26:31.631Z,4.88
2022-08-31T10:29:01.094Z,5.18
2022-08-31T10:31:34.024Z,3.65
2022-08-31T10:34:22.693Z,4.28
2022-08-31T10:36:52.826Z,3.65
2022-08-31T10:39:28.114Z,3.63
2022-08-31T10:41:55.229Z,3.92
2022-08-31T10:44:32.583Z,4.40
2022-08-31T10:47:02.711Z,4.78
2022-08-31T10:49:30.501Z,4.90
2022-08-31T10:51:59.954Z,3.37
2022-08-31T10:54:47.423Z,5.15
2022-08-31T10:57:34.461Z,5.63
2022-08-31T11:00:41.413Z,8.43
2022-08-31T11:03:08.470Z,4.60
2022-08-31T11:05:55.622Z,10.88
2022-08-31T11:08:22.718Z,3.40
2022-08-31T11:10:51.900Z,4.47
2022-08-31T11:13:28.413Z,3.42
2022-08-31T11:16:03.143Z,3.70
2022-08-31T11:18:41.006Z,12.30
2022-08-31T11:21:25.144Z,4.70
2022-08-31T11:24:05.017Z,3.83
2022-08-31T11:26:33.205Z,5.57
2022-08-31T11:29:10.006Z,4.70
2022-08-31T11:31:38.853Z,2.90
2022-08-31T11:34:17.330Z,3.80
2022-08-31T11:36:50.356Z,3.42
2022-08-31T11:39:21.413Z,7.20
2022-08-31T11:41:50.862Z,4.00
2022-08-31T11:44:35.692Z,3.38
2022-08-31T11:47:08.024Z,4.22
2022-08-31T11:49:38.345Z,4.38
2022-08-31T11:52:12.553Z,5.23
2022-08-31T11:54:42.782Z,4.65
2022-08-31T11:57:15.391Z,4.38
2022-08-31T11:59:46.339Z,3.50
2022-08-31T12:02:20.901Z,3.20
2022-08-31T12:04:48.188Z,3.05
2022-08-31T12:07:16.973Z,3.60
2022-08-31T12:10:04.022Z,4.15
2022-08-31T12:12:38.492Z,7.03
2022-08-31T12:15:08.182Z,10.07
2022-08-31T12:17:46.965Z,8.25
2022-08-31T12:20:25.308Z,5.78
2022-08-31T12:23:29.939Z,3.30
2022-08-31T12:26:06.312Z,5.90
2022-08-31T12:28:54.012Z,3.67
2022-08-31T12:31:21.181Z,3.58
2022-08-31T12:34:08.278Z,6.32
2022-08-31T12:36:36.787Z,4.22
2022-08-31T12:39:07.254Z,3.70
2022-08-31T12:41:34.735Z,3.23
2022-08-31T12:44:03.895Z,3.70
2022-08-31T12:46:38.844Z,3.55
2022-08-31T12:49:26.287Z,3.90
2022-08-31T12:52:00.475Z,4.70
2022-08-31T12:54:43.175Z,4.18
2022-08-31T12:57:10.159Z,4.18
2022-08-31T13:00:01.641Z,3.50
2022-08-31T13:02:31.130Z,2.97
2022-08-31T13:05:00.511Z,3.15
2022-08-31T13:07:34.571Z,3.30
2022-08-31T13:10:09.238Z,4.68
2022-08-31T13:12:36.979Z,5.03
2022-08-31T13:15:04.519Z,5.35
2022-08-31T13:17:37.027Z,3.65
2022-08-31T13:20:07.550Z,4.53
2022-08-31T13:22:41.701Z,4.55
2022-08-31T13:25:17.075Z,5.72
2022-08-31T13:27:49.402Z,9.35
2022-08-31T13:30:19.040Z,13.47
2022-08-31T13:32:49.752Z,7.68
2022-08-31T13:35:19.165Z,8.95
2022-08-31T13:37:52.565Z,8.20
2022-08-31T13:40:23.715Z,6.38
2022-08-31T13:42:55.506Z,6.90
2022-08-31T13:45:26.327Z,6.53
2022-08-31T13:48:02.453Z,7.72
2022-08-31T13:50:33.312Z,6.57
2022-08-31T13:53:26.483Z,8.13
2022-08-31T13:55:50.046Z,6.65
2022-08-31T13:58:33.016Z,7.10
2022-08-31T14:01:20.222Z,10.27
2022-08-31T14:03:56.221Z,8.90
2022-08-31T14:06:24.333Z,8.15
2022-08-31T14:08:54.197Z,7.20
2022-08-31T14:11:21.874Z,8.73
2022-08-31T14:13:50.206Z,8.45
2022-08-31T14:16:20.466Z,7.80
2022-08-31T14:18:55.907Z,7.90
2022-08-31T14:21:28.030Z,7.23
2022-08-31T14:24:01.212Z,7.68
2022-08-31T14:26:30.877Z,7.22
2022-08-31T14:29:00.367Z,7.45
2022-08-31T14:31:49.031Z,6.82
2022-08-31T14:34:19.039Z,7.13
2022-08-31T14:36:54.101Z,6.28
2022-08-31T14:39:21.269Z,7.10
2022-08-31T14:41:49.409Z,8.68
2022-08-31T14:44:19.029Z,6.47
2022-08-31T14:46:46.114Z,7.75
2022-08-31T14:49:13.226Z,8.40
2022-08-31T14:51:41.899Z,8.65
2022-08-31T14:54:09.112Z,13.27
2022-08-31T14:56:39.754Z,12.25
2022-08-31T14:59:12.384Z,13.48
2022-08-31T15:01:40.242Z,14.97
2022-08-31T15:04:08.228Z,9.07
2022-08-31T15:06:35.700Z,8.77
2022-08-31T15:09:04.145Z,13.17
2022-08-31T15:11:35.271Z,9.03
2022-08-31T15:14:04.774Z,8.98
2022-08-31T15:16:32.312Z,10.77
2022-08-31T15:18:59.930Z,12.02
2022-08-31T15:21:28.045Z,11.93
2022-08-31T15:23:55.200Z,11.20
2022-08-31T15:26:22.949Z,12.23
2022-08-31T15:28:52.486Z,12.55
2022-08-31T15:31:23.512Z,10.65
2022-08-31T15:33:52.379Z,10.27
2022-08-31T15:36:24.725Z,10.00
2022-08-31T15:38:56.125Z,9.63
2022-08-31T15:41:24.265Z,12.00
2022-08-31T15:43:52.021Z,8.95
2022-08-31T15:46:39.657Z,8.52
2022-08-31T15:49:07.740Z,7.75
2022-08-31T15:51:35.156Z,9.32
2022-08-31T15:54:21.178Z,8.63
2022-08-31T15:56:49.084Z,7.75
2022-08-31T15:59:16.200Z,7.35
2022-08-31T16:01:43.330Z,6.45
2022-08-31T16:04:16.062Z,7.37
2022-08-31T16:06:43.224Z,7.57
2022-08-31T16:09:10.319Z,7.03
2022-08-31T16:11:39.838Z,5.10
2022-08-31T16:14:10.964Z,4.70
2022-08-31T16:16:39.616Z,3.90
2022-08-31T16:19:08.167Z,4.30
2022-08-31T16:21:37.419Z,4.80
2022-08-31T16:24:08.054Z,4.30
2022-08-31T16:26:36.990Z,4.65
2022-08-31T16:29:05.423Z,5.00
2022-08-31T16:31:32.998Z,4.80
2022-08-31T16:34:00.182Z,4.90
2022-08-31T16:36:28.365Z,4.70
2022-08-31T16:38:56.554Z,4.78
2022-08-31T16:41:30.628Z,4.50
2022-08-31T16:44:18.401Z,4.30
2022-08-31T16:46:46.376Z,4.43
2022-08-31T16:49:33.446Z,4.57
2022-08-31T16:52:03.282Z,4.82
2022-08-31T16:54:30.535Z,4.90
2022-08-31T16:56:57.876Z,5.00
2022-08-31T16:59:25.967Z,4.65
2022-08-31T17:01:53.394Z,4.93
2022-08-31T17:04:48.235Z,5.10
2022-08-31T17:07:10.613Z,4.78
2022-08-31T17:09:38.437Z,5.18
2022-08-31T17:12:07.632Z,5.65
2022-08-31T17:14:35.948Z,5.18
2022-08-31T17:17:05.529Z,5.20
2022-08-31T17:19:34.313Z,5.23
2022-08-31T17:22:03.248Z,5.13
2022-08-31T17:24:32.013Z,5.57
2022-08-31T17:27:01.828Z,5.05
2022-08-31T17:29:32.090Z,5.50
2022-08-31T17:32:02.138Z,6.07
2022-08-31T17:34:30.032Z,5.28
2022-08-31T17:36:59.216Z,5.60
2022-08-31T17:39:26.861Z,5.53
2022-08-31T17:41:54.688Z,5.35
2022-08-31T17:44:30.737Z,5.28
2022-08-31T17:46:59.312Z,5.63
2022-08-31T17:49:28.058Z,5.25
2022-08-31T17:51:55.939Z,5.40
2022-08-31T17:54:30.072Z,5.97
2022-08-31T17:57:00.486Z,5.30
2022-08-31T17:59:30.999Z,5.32
2022-08-31T18:01:59.778Z,5.63
2022-08-31T18:04:27.675Z,6.60
2022-08-31T18:06:55.238Z,5.28
2022-08-31T18:09:24.063Z,6.03
2022-08-31T18:11:51.407Z,5.80
2022-08-31T18:14:20.451Z,5.63
2022-08-31T18:16:48.139Z,5.65
2022-08-31T18:19:15.643Z,4.90
2022-08-31T18:21:53.910Z,5.45
2022-08-31T18:24:21.363Z,5.28
2022-08-31T18:26:49.918Z,5.00
2022-08-31T18:29:21.518Z,5.50
2022-08-31T18:31:53.669Z,4.97
2022-08-31T18:34:22.594Z,5.53
2022-08-31T18:36:50.747Z,5.30
2022-08-31T18:39:34.818Z,6.18
2022-08-31T18:42:29.193Z,5.43
2022-08-31T18:45:19.566Z,5.25
2022-08-31T18:48:13.486Z,4.93
2022-08-31T18:50:37.064Z,5.85
2022-08-31T18:53:10.827Z,5.28
2022-08-31T18:55:42.548Z,6.22
2022-08-31T18:58:09.682Z,5.10
2022-08-31T19:00:36.544Z,4.70
2022-08-31T19:03:03.729Z,5.03
2022-08-31T19:05:32.442Z,4.90
2022-08-31T19:08:00.454Z,5.50
2022-08-31T19:10:27.989Z,5.50
2022-08-31T19:12:55.814Z,5.40
2022-08-31T19:15:25.607Z,5.22
2022-08-31T19:18:03.202Z,5.25
2022-08-31T19:20:30.747Z,5.03
2022-08-31T19:22:57.934Z,5.88
2022-08-31T19:25:25.107Z,5.50
2022-08-31T19:27:52.522Z,5.88
2022-08-31T19:30:25.784Z,5.20
2022-08-31T19:32:55.997Z,6.15
2022-08-31T19:35:23.741Z,5.05
2022-08-31T19:37:53.646Z,6.15
2022-08-31T19:40:21.264Z,5.80
2022-08-31T19:45:45.307Z,5.85
2022-08-31T19:48:13.282Z,5.13
2022-08-31T19:50:41.796Z,5.35
2022-08-31T19:53:11.174Z,5.60
2022-08-31T19:55:38.245Z,6.07
2022-08-31T19:58:05.340Z,6.03
2022-08-31T20:00:32.719Z,4.90
2022-08-31T20:03:00.685Z,5.45
2022-08-31T20:05:27.843Z,5.90
2022-08-31T20:07:55.349Z,5.38
2022-08-31T20:10:24.406Z,6.72
2022-08-31T20:12:56.850Z,5.15
2022-08-31T20:15:24.058Z,5.38
2022-08-31T20:17:57.091Z,4.82
2022-08-31T20:20:26.979Z,5.20
2022-08-31T20:22:54.156Z,5.60
2022-08-31T20:25:26.702Z,4.88
2022-08-31T20:27:54.098Z,5.35
2022-08-31T20:30:21.203Z,5.75
2022-08-31T20:32:48.537Z,5.28
2022-08-31T20:35:15.737Z,5.40
2022-08-31T20:37:43.062Z,5.80
2022-08-31T20:40:17.041Z,6.32
2022-08-31T20:42:43.962Z,5.35
2022-08-31T20:45:11.310Z,5.88
2022-08-31T20:47:58.335Z,5.07
2022-08-31T20:50:28.380Z,5.80
2022-08-31T20:52:56.762Z,5.47
2022-08-31T20:55:23.880Z,6.07
2022-08-31T20:57:51.213Z,5.93
2022-08-31T21:00:19.744Z,5.43
2022-08-31T21:02:49.657Z,5.25
2022-08-31T21:08:05.576Z,5.60
2022-08-31T21:10:37.688Z,5.30
2022-08-31T21:13:07.081Z,5.45
2022-08-31T21:15:33.854Z,5.25
2022-08-31T21:18:01.503Z,6.70
2022-08-31T21:20:29.071Z,5.88
2022-08-31T21:22:56.206Z,5.75
2022-08-31T21:25:23.750Z,5.60
2022-08-31T21:27:52.948Z,5.18
2022-08-31T21:30:20.047Z,6.28
2022-08-31T21:32:48.062Z,6.82
2022-08-31T21:35:15.238Z,5.22
2022-08-31T21:37:42.390Z,5.93
2022-08-31T21:40:10.885Z,7.32
2022-08-31T21:42:38.345Z,5.90
2022-08-31T21:45:05.788Z,6.88
2022-08-31T21:47:34.386Z,5.68
2022-08-31T21:50:01.585Z,7.13
2022-08-31T21:52:28.681Z,6.00
2022-08-31T21:54:55.825Z,6.03
2022-08-31T21:57:23.522Z,6.00
2022-08-31T21:59:51.043Z,5.55
2022-08-31T22:02:18.243Z,5.78
2022-08-31T22:04:45.412Z,5.97
2022-08-31T22:07:14.336Z,6.30
2022-08-31T22:09:41.710Z,6.97
2022-08-31T22:12:09.705Z,6.03
2022-08-31T22:14:38.762Z,5.60
2022-08-31T22:17:07.011Z,5.53
2022-08-31T22:19:38.880Z,5.90
2022-08-31T22:22:08.088Z,7.30
2022-08-31T22:24:35.939Z,5.78
2022-08-31T22:27:05.332Z,6.00
2022-08-31T22:29:33.995Z,5.80
2022-08-31T22:32:03.124Z,5.80
2022-08-31T22:34:30.438Z,5.78
2022-08-31T22:36:57.863Z,6.00
2022-08-31T22:39:27.120Z,6.37
2022-08-31T22:41:54.310Z,6.45
2022-08-31T22:44:22.872Z,6.72
2022-08-31T22:46:50.055Z,5.95
2022-08-31T22:49:17.303Z,6.15
2022-08-31T22:51:48.677Z,7.85
2022-08-31T22:54:18.350Z,6.43
2022-08-31T22:56:45.725Z,6.45
2022-08-31T22:59:14.239Z,6.95
2022-08-31T23:01:44.094Z,5.63
2022-08-31T23:04:12.571Z,5.30
2022-08-31T23:06:39.675Z,5.68
2022-08-31T23:09:08.287Z,5.83
2022-08-31T23:11:35.407Z,5.63
2022-08-31T23:14:07.269Z,5.33
2022-08-31T23:16:37.087Z,5.55
2022-08-31T23:19:08.491Z,5.80
2022-08-31T23:21:35.610Z,5.80
2022-08-31T23:24:03.148Z,6.65
2022-08-31T23:26:30.907Z,6.25
2022-08-31T23:28:59.126Z,7.33
2022-08-31T23:31:27.446Z,6.28
2022-08-31T23:33:55.158Z,6.10
2022-08-31T23:36:26.138Z,5.53
2022-08-31T23:38:55.042Z,6.30
2022-08-31T23:41:25.917Z,6.43
2022-08-31T23:43:53.460Z,5.97
2022-08-31T23:46:21.990Z,6.10
2022-08-31T23:48:49.785Z,7.32
2022-08-31T23:51:19.982Z,6.07
2022-08-31T23:53:55.213Z,6.65
2022-08-31T23:56:27.495Z,7.07
2022-08-31T23:58:54.553Z,6.40
